sensor_id;sensor_type;location;lat;lon;timestamp;P1;durP1;ratioP1;P2;durP2;ratioP2
55469;SDS011;41334;47.872;16.384;2022-10-30T00:01:18;5.60;;;3.45;;
55469;SDS011;41334;47.872;16.384;2022-10-30T00:04:20;6.78;;;4.40;;
55469;SDS011;41334;47.872;16.384;2022-10-30T00:07:22;10.18;;;4.47;;
55469;SDS011;41334;47.872;16.384;2022-10-30T00:10:24;5.93;;;3.67;;
55469;SDS011;41334;47.872;16.384;2022-10-30T00:13:25;8.13;;;4.25;;
55469;SDS011;41334;47.872;16.384;2022-10-30T00:16:27;8.50;;;4.47;;
55469;SDS011;41334;47.872;16.384;2022-10-30T00:19:29;8.32;;;4.32;;
55469;SDS011;41334;47.872;16.384;2022-10-30T00:22:30;8.32;;;3.88;;
55469;SDS011;41334;47.872;16.384;2022-10-30T00:25:33;7.53;;;4.15;;
55469;SDS011;41334;47.872;16.384;2022-10-30T00:28:35;6.85;;;3.92;;
55469;SDS011;41334;47.872;16.384;2022-10-30T00:31:36;9.80;;;4.70;;
55469;SDS011;41334;47.872;16.384;2022-10-30T00:34:38;5.55;;;3.10;;
55469;SDS011;41334;47.872;16.384;2022-10-30T00:37:41;7.47;;;4.47;;
55469;SDS011;41334;47.872;16.384;2022-10-30T00:40:43;7.35;;;4.07;;
55469;SDS011;41334;47.872;16.384;2022-10-30T00:43:45;5.57;;;3.47;;
55469;SDS011;41334;47.872;16.384;2022-10-30T00:46:46;4.95;;;2.90;;
55469;SDS011;41334;47.872;16.384;2022-10-30T00:53:00;6.53;;;4.05;;
55469;SDS011;41334;47.872;16.384;2022-10-30T00:56:03;5.87;;;3.73;;
55469;SDS011;41334;47.872;16.384;2022-10-30T00:59:10;6.07;;;3.50;;
55469;SDS011;41334;47.872;16.384;2022-10-30T01:02:12;6.53;;;3.85;;
55469;SDS011;41334;47.872;16.384;2022-10-30T01:05:15;7.93;;;3.97;;
55469;SDS011;41334;47.872;16.384;2022-10-30T01:08:17;6.25;;;3.60;;
55469;SDS011;41334;47.872;16.384;2022-10-30T01:11:19;6.50;;;4.07;;
55469;SDS011;41334;47.872;16.384;2022-10-30T01:14:21;5.43;;;3.65;;
55469;SDS011;41334;47.872;16.384;2022-10-30T01:23:48;5.78;;;3.17;;
55469;SDS011;41334;47.872;16.384;2022-10-30T01:27:03;5.03;;;3.22;;
55469;SDS011;41334;47.872;16.384;2022-10-30T01:36:34;7.43;;;4.22;;
55469;SDS011;41334;47.872;16.384;2022-10-30T01:39:38;7.40;;;4.10;;
55469;SDS011;41334;47.872;16.384;2022-10-30T01:42:43;7.28;;;4.13;;
55469;SDS011;41334;47.872;16.384;2022-10-30T01:48:52;5.18;;;3.63;;
55469;SDS011;41334;47.872;16.384;2022-10-30T01:52:15;6.07;;;3.72;;
55469;SDS011;41334;47.872;16.384;2022-10-30T01:58:26;6.65;;;4.00;;
55469;SDS011;41334;47.872;16.384;2022-10-30T02:01:30;6.18;;;3.33;;
55469;SDS011;41334;47.872;16.384;2022-10-30T02:04:33;5.78;;;3.22;;
55469;SDS011;41334;47.872;16.384;2022-10-30T02:07:35;7.22;;;3.63;;
55469;SDS011;41334;47.872;16.384;2022-10-30T02:10:40;6.50;;;3.90;;
55469;SDS011;41334;47.872;16.384;2022-10-30T02:13:43;5.30;;;3.22;;
55469;SDS011;41334;47.872;16.384;2022-10-30T02:16:46;5.43;;;3.35;;
55469;SDS011;41334;47.872;16.384;2022-10-30T02:19:51;5.50;;;2.63;;
55469;SDS011;41334;47.872;16.384;2022-10-30T02:22:53;3.75;;;2.35;;
55469;SDS011;41334;47.872;16.384;2022-10-30T02:26:04;5.10;;;3.13;;
55469;SDS011;41334;47.872;16.384;2022-10-30T02:29:06;7.13;;;3.67;;
55469;SDS011;41334;47.872;16.384;2022-10-30T02:32:07;4.55;;;2.35;;
55469;SDS011;41334;47.872;16.384;2022-10-30T02:35:09;7.45;;;3.38;;
55469;SDS011;41334;47.872;16.384;2022-10-30T02:38:11;4.45;;;2.90;;
55469;SDS011;41334;47.872;16.384;2022-10-30T02:41:13;6.28;;;3.55;;
55469;SDS011;41334;47.872;16.384;2022-10-30T02:44:15;5.20;;;3.50;;
55469;SDS011;41334;47.872;16.384;2022-10-30T02:47:17;5.72;;;2.90;;
55469;SDS011;41334;47.872;16.384;2022-10-30T02:50:19;4.60;;;3.10;;
55469;SDS011;41334;47.872;16.384;2022-10-30T02:53:21;5.47;;;3.20;;
55469;SDS011;41334;47.872;16.384;2022-10-30T02:56:23;4.53;;;2.97;;
55469;SDS011;41334;47.872;16.384;2022-10-30T02:59:24;7.38;;;3.33;;
55469;SDS011;41334;47.872;16.384;2022-10-30T03:02:26;5.68;;;3.17;;
55469;SDS011;41334;47.872;16.384;2022-10-30T03:05:28;5.68;;;2.97;;
55469;SDS011;41334;47.872;16.384;2022-10-30T03:08:31;4.78;;;2.90;;
55469;SDS011;41334;47.872;16.384;2022-10-30T03:11:33;4.97;;;2.67;;
55469;SDS011;41334;47.872;16.384;2022-10-30T03:14:35;6.40;;;3.53;;
55469;SDS011;41334;47.872;16.384;2022-10-30T03:17:38;6.63;;;3.33;;
55469;SDS011;41334;47.872;16.384;2022-10-30T03:23:46;5.28;;;2.95;;
55469;SDS011;41334;47.872;16.384;2022-10-30T03:26:49;4.93;;;3.25;;
55469;SDS011;41334;47.872;16.384;2022-10-30T03:29:51;5.10;;;3.25;;
55469;SDS011;41334;47.872;16.384;2022-10-30T03:32:53;5.00;;;2.75;;
55469;SDS011;41334;47.872;16.384;2022-10-30T03:35:54;5.47;;;3.25;;
55469;SDS011;41334;47.872;16.384;2022-10-30T03:38:57;7.47;;;2.95;;
55469;SDS011;41334;47.872;16.384;2022-10-30T03:42:00;1.20;;;0.95;;
55469;SDS011;41334;47.872;16.384;2022-10-30T03:45:02;4.60;;;2.97;;
55469;SDS011;41334;47.872;16.384;2022-10-30T03:48:04;5.63;;;3.20;;
55469;SDS011;41334;47.872;16.384;2022-10-30T03:51:07;4.10;;;2.60;;
55469;SDS011;41334;47.872;16.384;2022-10-30T03:54:09;3.28;;;2.17;;
55469;SDS011;41334;47.872;16.384;2022-10-30T03:57:12;6.15;;;2.75;;
55469;SDS011;41334;47.872;16.384;2022-10-30T04:00:25;5.57;;;3.03;;
55469;SDS011;41334;47.872;16.384;2022-10-30T04:03:30;5.38;;;3.17;;
55469;SDS011;41334;47.872;16.384;2022-10-30T04:06:32;4.55;;;2.53;;
55469;SDS011;41334;47.872;16.384;2022-10-30T04:09:34;2.85;;;1.85;;
55469;SDS011;41334;47.872;16.384;2022-10-30T04:12:36;4.30;;;2.65;;
55469;SDS011;41334;47.872;16.384;2022-10-30T04:15:38;4.68;;;2.90;;
55469;SDS011;41334;47.872;16.384;2022-10-30T04:18:40;4.53;;;2.70;;
55469;SDS011;41334;47.872;16.384;2022-10-30T04:21:42;3.35;;;2.05;;
55469;SDS011;41334;47.872;16.384;2022-10-30T04:24:46;4.60;;;2.75;;
55469;SDS011;41334;47.872;16.384;2022-10-30T04:27:49;3.70;;;2.33;;
55469;SDS011;41334;47.872;16.384;2022-10-30T04:30:53;4.60;;;2.55;;
55469;SDS011;41334;47.872;16.384;2022-10-30T04:33:55;7.82;;;3.10;;
55469;SDS011;41334;47.872;16.384;2022-10-30T04:36:56;3.50;;;2.38;;
55469;SDS011;41334;47.872;16.384;2022-10-30T04:39:58;4.10;;;2.30;;
55469;SDS011;41334;47.872;16.384;2022-10-30T04:43:05;3.42;;;2.38;;
55469;SDS011;41334;47.872;16.384;2022-10-30T04:46:07;3.38;;;2.20;;
55469;SDS011;41334;47.872;16.384;2022-10-30T04:49:09;4.75;;;2.38;;
55469;SDS011;41334;47.872;16.384;2022-10-30T04:52:11;4.07;;;1.98;;
55469;SDS011;41334;47.872;16.384;2022-10-30T04:55:12;5.70;;;2.30;;
55469;SDS011;41334;47.872;16.384;2022-10-30T04:58:16;4.22;;;2.03;;
55469;SDS011;41334;47.872;16.384;2022-10-30T05:01:22;4.35;;;2.47;;
55469;SDS011;41334;47.872;16.384;2022-10-30T05:04:24;4.60;;;2.45;;
55469;SDS011;41334;47.872;16.384;2022-10-30T05:07:26;5.88;;;2.75;;
55469;SDS011;41334;47.872;16.384;2022-10-30T05:10:28;4.35;;;2.33;;
55469;SDS011;41334;47.872;16.384;2022-10-30T05:13:29;3.22;;;1.80;;
55469;SDS011;41334;47.872;16.384;2022-10-30T05:16:31;4.53;;;2.20;;
55469;SDS011;41334;47.872;16.384;2022-10-30T05:19:35;7.53;;;2.75;;
55469;SDS011;41334;47.872;16.384;2022-10-30T05:22:39;3.65;;;1.60;;
55469;SDS011;41334;47.872;16.384;2022-10-30T05:25:41;4.55;;;2.25;;
55469;SDS011;41334;47.872;16.384;2022-10-30T05:28:45;3.10;;;2.20;;
55469;SDS011;41334;47.872;16.384;2022-10-30T05:31:47;1.45;;;0.82;;
55469;SDS011;41334;47.872;16.384;2022-10-30T05:34:49;3.78;;;2.40;;
55469;SDS011;41334;47.872;16.384;2022-10-30T05:37:55;3.20;;;1.85;;
55469;SDS011;41334;47.872;16.384;2022-10-30T05:40:57;4.03;;;2.15;;
55469;SDS011;41334;47.872;16.384;2022-10-30T05:43:59;3.65;;;2.53;;
55469;SDS011;41334;47.872;16.384;2022-10-30T05:47:01;3.13;;;2.30;;
55469;SDS011;41334;47.872;16.384;2022-10-30T05:50:06;4.90;;;2.28;;
55469;SDS011;41334;47.872;16.384;2022-10-30T05:53:09;3.63;;;2.22;;
55469;SDS011;41334;47.872;16.384;2022-10-30T05:56:12;2.70;;;1.70;;
55469;SDS011;41334;47.872;16.384;2022-10-30T05:59:14;1.85;;;1.25;;
55469;SDS011;41334;47.872;16.384;2022-10-30T06:02:16;3.15;;;2.15;;
55469;SDS011;41334;47.872;16.384;2022-10-30T06:05:18;5.25;;;2.28;;
55469;SDS011;41334;47.872;16.384;2022-10-30T06:08:20;4.38;;;2.38;;
55469;SDS011;41334;47.872;16.384;2022-10-30T06:11:25;5.07;;;2.50;;
55469;SDS011;41334;47.872;16.384;2022-10-30T06:14:29;3.50;;;1.95;;
55469;SDS011;41334;47.872;16.384;2022-10-30T06:17:31;6.50;;;1.90;;
55469;SDS011;41334;47.872;16.384;2022-10-30T06:20:44;7.25;;;4.20;;
55469;SDS011;41334;47.872;16.384;2022-10-30T06:24:05;7.20;;;3.65;;
55469;SDS011;41334;47.872;16.384;2022-10-30T06:27:15;3.30;;;1.90;;
55469;SDS011;41334;47.872;16.384;2022-10-30T06:30:18;23.30;;;12.13;;
55469;SDS011;41334;47.872;16.384;2022-10-30T06:33:20;7.78;;;3.65;;
55469;SDS011;41334;47.872;16.384;2022-10-30T06:36:24;4.88;;;2.80;;
55469;SDS011;41334;47.872;16.384;2022-10-30T06:39:27;4.18;;;2.38;;
55469;SDS011;41334;47.872;16.384;2022-10-30T06:42:52;4.00;;;2.72;;
55469;SDS011;41334;47.872;16.384;2022-10-30T06:46:02;3.20;;;1.88;;
55469;SDS011;41334;47.872;16.384;2022-10-30T06:49:05;5.00;;;2.58;;
55469;SDS011;41334;47.872;16.384;2022-10-30T06:52:07;4.03;;;2.17;;
55469;SDS011;41334;47.872;16.384;2022-10-30T06:55:09;4.35;;;2.47;;
55469;SDS011;41334;47.872;16.384;2022-10-30T06:58:23;6.35;;;2.40;;
55469;SDS011;41334;47.872;16.384;2022-10-30T07:01:29;4.07;;;2.65;;
55469;SDS011;41334;47.872;16.384;2022-10-30T07:04:45;2.77;;;1.63;;
55469;SDS011;41334;47.872;16.384;2022-10-30T07:07:47;4.05;;;1.85;;
55469;SDS011;41334;47.872;16.384;2022-10-30T07:10:48;5.63;;;2.00;;
55469;SDS011;41334;47.872;16.384;2022-10-30T07:13:58;4.90;;;2.00;;
55469;SDS011;41334;47.872;16.384;2022-10-30T07:17:29;3.33;;;1.90;;
55469;SDS011;41334;47.872;16.384;2022-10-30T07:20:36;3.05;;;1.80;;
55469;SDS011;41334;47.872;16.384;2022-10-30T07:23:37;4.07;;;2.00;;
55469;SDS011;41334;47.872;16.384;2022-10-30T07:27:11;2.33;;;1.63;;
55469;SDS011;41334;47.872;16.384;2022-10-30T07:30:31;2.67;;;1.73;;
55469;SDS011;41334;47.872;16.384;2022-10-30T07:33:52;3.22;;;1.33;;
55469;SDS011;41334;47.872;16.384;2022-10-30T07:37:07;3.47;;;1.67;;
55469;SDS011;41334;47.872;16.384;2022-10-30T07:40:17;3.45;;;2.10;;
55469;SDS011;41334;47.872;16.384;2022-10-30T07:43:24;3.53;;;1.98;;
55469;SDS011;41334;47.872;16.384;2022-10-30T07:46:34;3.22;;;1.95;;
55469;SDS011;41334;47.872;16.384;2022-10-30T07:49:56;4.75;;;2.35;;
55469;SDS011;41334;47.872;16.384;2022-10-30T07:52:58;4.13;;;2.47;;
55469;SDS011;41334;47.872;16.384;2022-10-30T07:56:02;3.85;;;2.40;;
55469;SDS011;41334;47.872;16.384;2022-10-30T07:59:27;7.28;;;2.53;;
55469;SDS011;41334;47.872;16.384;2022-10-30T08:02:50;3.50;;;1.92;;
55469;SDS011;41334;47.872;16.384;2022-10-30T08:06:01;5.35;;;2.70;;
55469;SDS011;41334;47.872;16.384;2022-10-30T08:09:08;4.30;;;2.80;;
55469;SDS011;41334;47.872;16.384;2022-10-30T08:12:10;3.90;;;2.53;;
55469;SDS011;41334;47.872;16.384;2022-10-30T08:15:11;6.10;;;2.22;;
55469;SDS011;41334;47.872;16.384;2022-10-30T08:18:13;3.65;;;2.42;;
55469;SDS011;41334;47.872;16.384;2022-10-30T08:21:16;7.40;;;3.00;;
55469;SDS011;41334;47.872;16.384;2022-10-30T08:24:29;9.45;;;5.10;;
55469;SDS011;41334;47.872;16.384;2022-10-30T08:27:32;6.47;;;3.22;;
55469;SDS011;41334;47.872;16.384;2022-10-30T08:30:34;4.85;;;2.45;;
55469;SDS011;41334;47.872;16.384;2022-10-30T08:33:37;4.50;;;2.10;;
55469;SDS011;41334;47.872;16.384;2022-10-30T08:36:59;4.95;;;2.70;;
55469;SDS011;41334;47.872;16.384;2022-10-30T08:40:01;4.78;;;2.63;;
55469;SDS011;41334;47.872;16.384;2022-10-30T08:43:13;5.05;;;2.78;;
55469;SDS011;41334;47.872;16.384;2022-10-30T08:46:16;8.73;;;3.33;;
55469;SDS011;41334;47.872;16.384;2022-10-30T08:49:18;5.70;;;2.75;;
55469;SDS011;41334;47.872;16.384;2022-10-30T08:52:26;5.28;;;3.13;;
55469;SDS011;41334;47.872;16.384;2022-10-30T08:55:30;4.50;;;2.67;;
55469;SDS011;41334;47.872;16.384;2022-10-30T08:58:35;7.60;;;3.03;;
55469;SDS011;41334;47.872;16.384;2022-10-30T09:01:37;7.32;;;3.17;;
55469;SDS011;41334;47.872;16.384;2022-10-30T09:05:05;3.83;;;2.38;;
55469;SDS011;41334;47.872;16.384;2022-10-30T09:08:44;7.35;;;2.67;;
55469;SDS011;41334;47.872;16.384;2022-10-30T09:12:03;4.75;;;2.15;;
55469;SDS011;41334;47.872;16.384;2022-10-30T09:15:12;2.63;;;1.63;;
55469;SDS011;41334;47.872;16.384;2022-10-30T09:18:25;4.20;;;2.55;;
55469;SDS011;41334;47.872;16.384;2022-10-30T09:21:27;4.90;;;2.80;;
55469;SDS011;41334;47.872;16.384;2022-10-30T09:24:29;5.35;;;2.83;;
55469;SDS011;41334;47.872;16.384;2022-10-30T09:27:49;5.32;;;2.88;;
55469;SDS011;41334;47.872;16.384;2022-10-30T09:30:52;3.95;;;2.38;;
55469;SDS011;41334;47.872;16.384;2022-10-30T09:33:57;5.18;;;2.90;;
55469;SDS011;41334;47.872;16.384;2022-10-30T09:37:14;3.50;;;2.20;;
55469;SDS011;41334;47.872;16.384;2022-10-30T09:53:29;4.82;;;3.20;;
55469;SDS011;41334;47.872;16.384;2022-10-30T10:07:21;9.93;;;4.70;;
55469;SDS011;41334;47.872;16.384;2022-10-30T10:16:54;6.60;;;3.20;;
55469;SDS011;41334;47.872;16.384;2022-10-30T10:19:57;9.45;;;5.25;;
55469;SDS011;41334;47.872;16.384;2022-10-30T10:26:25;7.68;;;3.75;;
55469;SDS011;41334;47.872;16.384;2022-10-30T10:33:13;7.90;;;3.90;;
55469;SDS011;41334;47.872;16.384;2022-10-30T10:52:10;5.45;;;3.70;;
55469;SDS011;41334;47.872;16.384;2022-10-30T10:55:16;5.47;;;3.75;;
55469;SDS011;41334;47.872;16.384;2022-10-30T11:01:39;4.80;;;3.08;;
55469;SDS011;41334;47.872;16.384;2022-10-30T11:04:42;6.80;;;2.95;;
55469;SDS011;41334;47.872;16.384;2022-10-30T11:07:46;3.45;;;2.35;;
55469;SDS011;41334;47.872;16.384;2022-10-30T11:10:50;6.13;;;3.50;;
55469;SDS011;41334;47.872;16.384;2022-10-30T11:13:54;7.53;;;3.45;;
55469;SDS011;41334;47.872;16.384;2022-10-30T11:20:24;4.70;;;3.28;;
55469;SDS011;41334;47.872;16.384;2022-10-30T11:26:33;5.70;;;3.55;;
55469;SDS011;41334;47.872;16.384;2022-10-30T11:29:35;5.75;;;3.15;;
55469;SDS011;41334;47.872;16.384;2022-10-30T11:32:36;7.30;;;3.85;;
55469;SDS011;41334;47.872;16.384;2022-10-30T11:35:41;8.88;;;4.05;;
55469;SDS011;41334;47.872;16.384;2022-10-30T11:38:43;7.38;;;4.25;;
55469;SDS011;41334;47.872;16.384;2022-10-30T11:45:11;5.97;;;3.40;;
55469;SDS011;41334;47.872;16.384;2022-10-30T11:48:18;8.40;;;3.63;;
55469;SDS011;41334;47.872;16.384;2022-10-30T11:51:33;8.80;;;3.83;;
55469;SDS011;41334;47.872;16.384;2022-10-30T11:54:37;8.70;;;3.83;;
55469;SDS011;41334;47.872;16.384;2022-10-30T11:57:49;9.27;;;4.18;;
55469;SDS011;41334;47.872;16.384;2022-10-30T12:01:25;6.40;;;3.38;;
55469;SDS011;41334;47.872;16.384;2022-10-30T12:04:21;9.02;;;4.43;;
55469;SDS011;41334;47.872;16.384;2022-10-30T12:07:30;9.98;;;4.60;;
55469;SDS011;41334;47.872;16.384;2022-10-30T12:11:18;8.50;;;4.47;;
55469;SDS011;41334;47.872;16.384;2022-10-30T12:13:54;10.55;;;4.80;;
55469;SDS011;41334;47.872;16.384;2022-10-30T12:16:56;7.85;;;3.95;;
55469;SDS011;41334;47.872;16.384;2022-10-30T12:19:57;8.00;;;4.05;;
55469;SDS011;41334;47.872;16.384;2022-10-30T12:23:07;7.55;;;4.07;;
55469;SDS011;41334;47.872;16.384;2022-10-30T12:26:10;5.95;;;3.83;;
55469;SDS011;41334;47.872;16.384;2022-10-30T12:29:14;7.13;;;3.97;;
55469;SDS011;41334;47.872;16.384;2022-10-30T12:32:17;7.53;;;4.18;;
55469;SDS011;41334;47.872;16.384;2022-10-30T12:35:21;6.45;;;3.95;;
55469;SDS011;41334;47.872;16.384;2022-10-30T12:41:41;9.98;;;4.53;;
55469;SDS011;41334;47.872;16.384;2022-10-30T12:44:45;6.57;;;4.28;;
55469;SDS011;41334;47.872;16.384;2022-10-30T12:48:11;6.80;;;3.10;;
55469;SDS011;41334;47.872;16.384;2022-10-30T12:51:28;10.07;;;4.38;;
55469;SDS011;41334;47.872;16.384;2022-10-30T12:57:42;10.30;;;5.90;;
55469;SDS011;41334;47.872;16.384;2022-10-30T13:00:53;8.00;;;4.43;;
55469;SDS011;41334;47.872;16.384;2022-10-30T13:04:07;11.70;;;4.97;;
55469;SDS011;41334;47.872;16.384;2022-10-30T13:07:30;10.13;;;4.85;;
55469;SDS011;41334;47.872;16.384;2022-10-30T13:10:53;8.07;;;4.88;;
55469;SDS011;41334;47.872;16.384;2022-10-30T13:13:57;7.22;;;3.97;;
55469;SDS011;41334;47.872;16.384;2022-10-30T13:16:59;8.95;;;4.72;;
55469;SDS011;41334;47.872;16.384;2022-10-30T13:20:04;11.90;;;4.97;;
55469;SDS011;41334;47.872;16.384;2022-10-30T13:23:09;7.43;;;4.43;;
55469;SDS011;41334;47.872;16.384;2022-10-30T13:29:43;7.25;;;3.70;;
55469;SDS011;41334;47.872;16.384;2022-10-30T13:36:18;12.18;;;4.93;;
55469;SDS011;41334;47.872;16.384;2022-10-30T13:52:07;8.95;;;4.93;;
55469;SDS011;41334;47.872;16.384;2022-10-30T13:55:21;8.60;;;5.25;;
55469;SDS011;41334;47.872;16.384;2022-10-30T13:58:25;11.35;;;5.50;;
55469;SDS011;41334;47.872;16.384;2022-10-30T14:01:34;11.85;;;5.30;;
55469;SDS011;41334;47.872;16.384;2022-10-30T14:04:50;13.32;;;6.10;;
55469;SDS011;41334;47.872;16.384;2022-10-30T14:08:05;8.13;;;4.80;;
55469;SDS011;41334;47.872;16.384;2022-10-30T14:11:11;12.55;;;5.45;;
55469;SDS011;41334;47.872;16.384;2022-10-30T14:14:24;12.90;;;5.20;;
55469;SDS011;41334;47.872;16.384;2022-10-30T14:17:28;13.25;;;5.85;;
55469;SDS011;41334;47.872;16.384;2022-10-30T14:20:30;12.55;;;5.50;;
55469;SDS011;41334;47.872;16.384;2022-10-30T14:23:35;10.57;;;5.15;;
55469;SDS011;41334;47.872;16.384;2022-10-30T14:26:44;11.80;;;6.00;;
55469;SDS011;41334;47.872;16.384;2022-10-30T14:29:53;9.63;;;3.35;;
55469;SDS011;41334;47.872;16.384;2022-10-30T14:32:54;12.50;;;5.47;;
55469;SDS011;41334;47.872;16.384;2022-10-30T14:45:33;10.43;;;4.38;;
55469;SDS011;41334;47.872;16.384;2022-10-30T14:51:50;9.60;;;5.20;;
55469;SDS011;41334;47.872;16.384;2022-10-30T14:54:58;9.07;;;4.75;;
55469;SDS011;41334;47.872;16.384;2022-10-30T15:04:24;10.82;;;5.85;;
55469;SDS011;41334;47.872;16.384;2022-10-30T15:14:01;15.95;;;6.55;;
55469;SDS011;41334;47.872;16.384;2022-10-30T15:17:03;12.45;;;6.15;;
55469;SDS011;41334;47.872;16.384;2022-10-30T15:20:06;11.35;;;5.80;;
55469;SDS011;41334;47.872;16.384;2022-10-30T15:23:15;34.25;;;4.90;;
55469;SDS011;41334;47.872;16.384;2022-10-30T15:26:21;15.75;;;6.40;;
55469;SDS011;41334;47.872;16.384;2022-10-30T15:29:24;9.32;;;5.30;;
55469;SDS011;41334;47.872;16.384;2022-10-30T15:32:29;11.35;;;5.45;;
55469;SDS011;41334;47.872;16.384;2022-10-30T15:35:30;10.15;;;5.60;;
55469;SDS011;41334;47.872;16.384;2022-10-30T15:38:32;12.38;;;6.15;;
55469;SDS011;41334;47.872;16.384;2022-10-30T15:41:36;15.05;;;6.40;;
55469;SDS011;41334;47.872;16.384;2022-10-30T15:44:41;14.20;;;6.13;;
55469;SDS011;41334;47.872;16.384;2022-10-30T15:51:07;11.30;;;6.38;;
55469;SDS011;41334;47.872;16.384;2022-10-30T15:54:16;13.40;;;6.78;;
55469;SDS011;41334;47.872;16.384;2022-10-30T16:00:55;14.95;;;5.57;;
55469;SDS011;41334;47.872;16.384;2022-10-30T16:03:57;12.10;;;6.18;;
55469;SDS011;41334;47.872;16.384;2022-10-30T16:06:59;13.73;;;5.90;;
55469;SDS011;41334;47.872;16.384;2022-10-30T16:10:02;13.65;;;6.30;;
55469;SDS011;41334;47.872;16.384;2022-10-30T16:13:05;12.63;;;5.35;;
55469;SDS011;41334;47.872;16.384;2022-10-30T16:16:29;11.45;;;5.82;;
55469;SDS011;41334;47.872;16.384;2022-10-30T16:19:34;11.18;;;5.82;;
55469;SDS011;41334;47.872;16.384;2022-10-30T16:22:38;11.70;;;5.28;;
55469;SDS011;41334;47.872;16.384;2022-10-30T16:25:40;9.45;;;5.80;;
55469;SDS011;41334;47.872;16.384;2022-10-30T16:28:47;14.52;;;6.88;;
55469;SDS011;41334;47.872;16.384;2022-10-30T16:31:49;12.45;;;6.47;;
55469;SDS011;41334;47.872;16.384;2022-10-30T16:34:58;10.85;;;5.90;;
55469;SDS011;41334;47.872;16.384;2022-10-30T16:38:00;15.82;;;6.03;;
55469;SDS011;41334;47.872;16.384;2022-10-30T16:41:04;10.88;;;6.07;;
55469;SDS011;41334;47.872;16.384;2022-10-30T16:44:09;12.70;;;5.38;;
55469;SDS011;41334;47.872;16.384;2022-10-30T16:50:18;11.50;;;6.18;;
55469;SDS011;41334;47.872;16.384;2022-10-30T16:53:21;12.70;;;6.10;;
55469;SDS011;41334;47.872;16.384;2022-10-30T16:56:27;12.02;;;6.20;;
55469;SDS011;41334;47.872;16.384;2022-10-30T16:59:30;10.23;;;5.93;;
55469;SDS011;41334;47.872;16.384;2022-10-30T17:02:34;18.88;;;7.05;;
55469;SDS011;41334;47.872;16.384;2022-10-30T17:05:37;11.98;;;5.65;;
55469;SDS011;41334;47.872;16.384;2022-10-30T17:08:41;12.57;;;6.13;;
55469;SDS011;41334;47.872;16.384;2022-10-30T17:11:43;12.13;;;5.20;;
55469;SDS011;41334;47.872;16.384;2022-10-30T17:18:07;13.10;;;6.88;;
55469;SDS011;41334;47.872;16.384;2022-10-30T17:21:10;12.18;;;5.45;;
55469;SDS011;41334;47.872;16.384;2022-10-30T17:24:30;9.75;;;6.05;;
55469;SDS011;41334;47.872;16.384;2022-10-30T17:30:47;12.80;;;6.25;;
55469;SDS011;41334;47.872;16.384;2022-10-30T17:34:31;15.20;;;6.25;;
55469;SDS011;41334;47.872;16.384;2022-10-30T17:37:13;13.40;;;6.25;;
55469;SDS011;41334;47.872;16.384;2022-10-30T17:40:15;12.25;;;6.25;;
55469;SDS011;41334;47.872;16.384;2022-10-30T17:43:19;10.00;;;5.57;;
55469;SDS011;41334;47.872;16.384;2022-10-30T17:46:22;8.93;;;5.20;;
55469;SDS011;41334;47.872;16.384;2022-10-30T17:49:28;12.88;;;5.07;;
55469;SDS011;41334;47.872;16.384;2022-10-30T17:52:30;10.95;;;5.72;;
55469;SDS011;41334;47.872;16.384;2022-10-30T17:55:32;9.48;;;4.88;;
55469;SDS011;41334;47.872;16.384;2022-10-30T17:58:35;8.88;;;5.20;;
55469;SDS011;41334;47.872;16.384;2022-10-30T18:01:36;10.75;;;5.00;;
55469;SDS011;41334;47.872;16.384;2022-10-30T18:04:38;13.25;;;5.70;;
55469;SDS011;41334;47.872;16.384;2022-10-30T18:07:44;11.93;;;4.70;;
55469;SDS011;41334;47.872;16.384;2022-10-30T18:10:46;10.23;;;5.50;;
55469;SDS011;41334;47.872;16.384;2022-10-30T18:13:48;12.43;;;5.90;;
55469;SDS011;41334;47.872;16.384;2022-10-30T18:16:50;11.50;;;5.90;;
55469;SDS011;41334;47.872;16.384;2022-10-30T18:19:55;12.32;;;6.40;;
55469;SDS011;41334;47.872;16.384;2022-10-30T18:22:57;10.48;;;5.93;;
55469;SDS011;41334;47.872;16.384;2022-10-30T18:25:59;10.52;;;5.07;;
55469;SDS011;41334;47.872;16.384;2022-10-30T18:29:01;11.13;;;5.70;;
55469;SDS011;41334;47.872;16.384;2022-10-30T18:32:03;9.18;;;5.50;;
55469;SDS011;41334;47.872;16.384;2022-10-30T18:38:30;10.55;;;5.38;;
55469;SDS011;41334;47.872;16.384;2022-10-30T18:41:33;9.82;;;5.72;;
55469;SDS011;41334;47.872;16.384;2022-10-30T18:44:35;10.07;;;5.20;;
55469;SDS011;41334;47.872;16.384;2022-10-30T18:47:37;10.43;;;5.43;;
55469;SDS011;41334;47.872;16.384;2022-10-30T18:50:39;11.05;;;5.38;;
55469;SDS011;41334;47.872;16.384;2022-10-30T18:53:41;11.13;;;5.80;;
55469;SDS011;41334;47.872;16.384;2022-10-30T18:56:42;9.10;;;4.93;;
55469;SDS011;41334;47.872;16.384;2022-10-30T18:59:44;8.43;;;5.00;;
55469;SDS011;41334;47.872;16.384;2022-10-30T19:02:49;8.38;;;4.72;;
55469;SDS011;41334;47.872;16.384;2022-10-30T19:05:51;9.07;;;5.20;;
55469;SDS011;41334;47.872;16.384;2022-10-30T19:08:53;10.02;;;5.45;;
55469;SDS011;41334;47.872;16.384;2022-10-30T19:11:55;10.30;;;5.55;;
55469;SDS011;41334;47.872;16.384;2022-10-30T19:14:56;10.68;;;5.15;;
55469;SDS011;41334;47.872;16.384;2022-10-30T19:17:59;8.63;;;4.75;;
55469;SDS011;41334;47.872;16.384;2022-10-30T19:21:02;11.07;;;5.80;;
55469;SDS011;41334;47.872;16.384;2022-10-30T19:24:08;11.90;;;5.57;;
55469;SDS011;41334;47.872;16.384;2022-10-30T19:27:12;9.00;;;5.32;;
55469;SDS011;41334;47.872;16.384;2022-10-30T19:30:14;6.82;;;4.15;;
55469;SDS011;41334;47.872;16.384;2022-10-30T19:33:16;10.00;;;4.47;;
55469;SDS011;41334;47.872;16.384;2022-10-30T19:36:29;11.02;;;5.43;;
55469;SDS011;41334;47.872;16.384;2022-10-30T19:39:31;10.25;;;5.20;;
55469;SDS011;41334;47.872;16.384;2022-10-30T19:42:33;7.15;;;4.25;;
55469;SDS011;41334;47.872;16.384;2022-10-30T19:45:35;10.13;;;5.05;;
55469;SDS011;41334;47.872;16.384;2022-10-30T19:48:37;12.77;;;4.65;;
55469;SDS011;41334;47.872;16.384;2022-10-30T19:51:57;8.73;;;5.18;;
55469;SDS011;41334;47.872;16.384;2022-10-30T19:54:59;11.50;;;5.68;;
55469;SDS011;41334;47.872;16.384;2022-10-30T19:58:01;9.80;;;5.10;;
55469;SDS011;41334;47.872;16.384;2022-10-30T20:01:03;8.68;;;4.78;;
55469;SDS011;41334;47.872;16.384;2022-10-30T20:04:05;6.97;;;4.18;;
55469;SDS011;41334;47.872;16.384;2022-10-30T20:07:07;8.13;;;3.58;;
55469;SDS011;41334;47.872;16.384;2022-10-30T20:10:18;7.45;;;4.13;;
55469;SDS011;41334;47.872;16.384;2022-10-30T20:13:20;7.78;;;4.50;;
55469;SDS011;41334;47.872;16.384;2022-10-30T20:16:25;7.53;;;4.65;;
55469;SDS011;41334;47.872;16.384;2022-10-30T20:19:28;7.47;;;4.40;;
55469;SDS011;41334;47.872;16.384;2022-10-30T20:22:30;7.53;;;4.57;;
55469;SDS011;41334;47.872;16.384;2022-10-30T20:25:31;5.78;;;3.67;;
55469;SDS011;41334;47.872;16.384;2022-10-30T20:28:37;8.40;;;4.03;;
55469;SDS011;41334;47.872;16.384;2022-10-30T20:31:39;7.10;;;3.92;;
55469;SDS011;41334;47.872;16.384;2022-10-30T20:34:40;9.35;;;4.45;;
55469;SDS011;41334;47.872;16.384;2022-10-30T20:37:43;7.20;;;3.55;;
55469;SDS011;41334;47.872;16.384;2022-10-30T20:40:45;8.65;;;4.03;;
55469;SDS011;41334;47.872;16.384;2022-10-30T20:43:47;7.30;;;3.83;;
55469;SDS011;41334;47.872;16.384;2022-10-30T20:46:50;7.20;;;4.15;;
55469;SDS011;41334;47.872;16.384;2022-10-30T20:49:52;6.10;;;3.78;;
55469;SDS011;41334;47.872;16.384;2022-10-30T20:52:54;6.70;;;3.55;;
55469;SDS011;41334;47.872;16.384;2022-10-30T20:55:56;7.80;;;4.20;;
55469;SDS011;41334;47.872;16.384;2022-10-30T20:58:58;7.57;;;3.92;;